createdAt,value
2022-11-23T00:00:57.980Z,9.60
2022-11-23T00:01:59.998Z,9.60
2022-11-23T00:03:01.795Z,9.60
2022-11-23T00:04:06.537Z,9.60
2022-11-23T00:05:09.999Z,9.50
2022-11-23T00:06:11.950Z,9.50
2022-11-23T00:07:13.967Z,9.50
2022-11-23T00:08:16.230Z,9.50
2022-11-23T00:09:19.466Z,9.50
2022-11-23T00:10:21.602Z,9.50
2022-11-23T00:11:25.204Z,9.50
2022-11-23T00:12:27.300Z,9.50
2022-11-23T00:13:29.167Z,9.50
2022-11-23T00:14:31.462Z,9.50
2022-11-23T00:15:35.682Z,9.50
2022-11-23T00:16:37.875Z,9.40
2022-11-23T00:17:39.649Z,9.40
2022-11-23T00:18:42.238Z,9.40
2022-11-23T00:19:43.919Z,9.40
2022-11-23T00:20:46.322Z,9.40
2022-11-23T00:21:48.014Z,9.40
2022-11-23T00:22:50.096Z,9.40
2022-11-23T00:23:53.399Z,9.30
2022-11-23T00:24:55.101Z,9.30
2022-11-23T00:25:56.915Z,9.30
2022-11-23T00:26:59.043Z,9.30
2022-11-23T00:28:00.781Z,9.30
2022-11-23T00:29:03.757Z,9.30
2022-11-23T00:30:06.180Z,9.30
2022-11-23T00:31:11.562Z,9.30
2022-11-23T00:32:13.413Z,9.30
2022-11-23T00:33:18.092Z,9.30
2022-11-23T00:34:19.789Z,9.30
2022-11-23T00:35:22.331Z,9.30
2022-11-23T00:36:26.618Z,9.30
2022-11-23T00:37:28.478Z,9.20
2022-11-23T00:38:30.406Z,9.30
2022-11-23T00:39:33.682Z,9.30
2022-11-23T00:40:35.545Z,9.20
2022-11-23T00:41:37.433Z,9.20
2022-11-23T00:42:39.272Z,9.30
2022-11-23T00:43:41.070Z,9.20
2022-11-23T00:44:42.934Z,9.20
2022-11-23T00:45:44.626Z,9.20
2022-11-23T00:46:46.469Z,9.20
2022-11-23T00:47:48.278Z,9.20
2022-11-23T00:48:51.987Z,9.10
2022-11-23T00:49:53.699Z,9.20
2022-11-23T00:50:55.446Z,9.10
2022-11-23T00:51:57.307Z,9.20
2022-11-23T00:52:59.274Z,9.20
2022-11-23T00:54:02.550Z,9.20
2022-11-23T00:55:04.881Z,9.20
2022-11-23T00:56:07.313Z,9.20
2022-11-23T00:57:09.114Z,9.20
2022-11-23T00:58:10.950Z,9.20
2022-11-23T00:59:12.767Z,9.20
2022-11-23T01:00:15.571Z,9.30
2022-11-23T01:01:19.486Z,9.30
2022-11-23T01:02:21.274Z,9.30
2022-11-23T01:03:23.062Z,9.30
2022-11-23T01:04:24.718Z,9.30
2022-11-23T01:05:26.554Z,9.30
2022-11-23T01:06:31.460Z,9.30
2022-11-23T01:07:33.836Z,9.40
2022-11-23T01:08:36.534Z,9.40
2022-11-23T01:09:38.404Z,9.40
2022-11-23T01:10:40.197Z,9.40
2022-11-23T01:11:42.377Z,9.40
2022-11-23T01:12:44.217Z,9.50
2022-11-23T01:13:46.259Z,9.50
2022-11-23T01:14:48.063Z,9.40
2022-11-23T01:15:53.365Z,9.40
2022-11-23T01:16:55.078Z,9.40
2022-11-23T01:17:57.461Z,9.50
2022-11-23T01:19:06.828Z,9.50
2022-11-23T01:20:09.416Z,9.50
2022-11-23T01:21:11.387Z,9.50
2022-11-23T01:22:13.242Z,9.50
2022-11-23T01:23:15.039Z,9.30
2022-11-23T01:24:19.450Z,9.50
2022-11-23T01:25:21.246Z,9.50
2022-11-23T01:26:23.438Z,9.60
2022-11-23T01:27:25.174Z,9.60
2022-11-23T01:28:26.886Z,9.60
2022-11-23T01:29:28.917Z,9.60
2022-11-23T01:30:30.820Z,9.50
2022-11-23T01:31:32.567Z,9.50
2022-11-23T01:32:34.387Z,9.50
2022-11-23T01:33:36.594Z,9.50
2022-11-23T01:34:38.284Z,9.50
2022-11-23T01:35:40.106Z,9.60
2022-11-23T01:36:42.260Z,9.50
2022-11-23T01:37:43.956Z,9.60
2022-11-23T01:38:47.220Z,9.50
2022-11-23T01:39:49.070Z,9.50
2022-11-23T01:40:50.721Z,9.50
2022-11-23T01:41:52.623Z,9.50
2022-11-23T01:42:56.732Z,9.50
2022-11-23T01:43:58.759Z,9.50
2022-11-23T01:45:34.556Z,9.50
2022-11-23T01:46:36.392Z,9.50
2022-11-23T01:47:38.321Z,9.50
2022-11-23T01:48:57.601Z,9.50
2022-11-23T01:49:59.554Z,9.50
2022-11-23T01:51:04.465Z,9.50
2022-11-23T01:52:26.669Z,9.40
2022-11-23T01:53:29.983Z,9.40
2022-11-23T01:54:36.816Z,9.40
2022-11-23T01:55:39.217Z,9.40
2022-11-23T01:56:46.334Z,9.30
2022-11-23T01:57:48.617Z,9.30
2022-11-23T01:58:54.614Z,9.30
2022-11-23T01:59:57.122Z,9.20
2022-11-23T02:00:59.422Z,9.20
2022-11-23T02:02:04.622Z,9.20
2022-11-23T02:03:09.279Z,9.20
2022-11-23T02:04:18.052Z,9.20
2022-11-23T02:05:22.840Z,9.20
2022-11-23T02:06:24.825Z,9.20
2022-11-23T02:07:26.685Z,9.20
2022-11-23T02:08:29.632Z,9.20
2022-11-23T02:09:33.563Z,9.20
2022-11-23T02:10:36.318Z,9.20
2022-11-23T02:11:39.737Z,9.20
2022-11-23T02:12:41.538Z,9.20
2022-11-23T02:13:46.161Z,9.10
2022-11-23T02:14:48.150Z,9.20
2022-11-23T02:15:50.714Z,9.10
2022-11-23T02:16:52.773Z,9.10
2022-11-23T02:17:54.712Z,9.10
2022-11-23T02:18:56.445Z,9.10
2022-11-23T02:20:09.157Z,9.10
2022-11-23T02:21:11.354Z,9.10
2022-11-23T02:22:26.717Z,9.20
2022-11-23T02:24:07.575Z,9.10
2022-11-23T02:25:22.732Z,9.10
2022-11-23T02:26:30.507Z,9.20
2022-11-23T02:27:32.634Z,9.10
2022-11-23T02:28:39.184Z,9.10
2022-11-23T02:29:41.332Z,9.00
2022-11-23T02:30:45.394Z,9.10
2022-11-23T02:31:47.421Z,9.10
2022-11-23T02:32:49.312Z,9.00
2022-11-23T02:33:50.989Z,9.00
2022-11-23T02:34:53.512Z,9.00
2022-11-23T02:36:00.917Z,9.00
2022-11-23T02:37:02.558Z,8.90
2022-11-23T02:38:06.878Z,8.90
2022-11-23T02:39:19.139Z,8.90
2022-11-23T02:40:37.675Z,8.90
2022-11-23T02:41:45.046Z,8.80
2022-11-23T02:42:48.659Z,8.80
2022-11-23T02:43:55.911Z,8.80
2022-11-23T02:45:28.601Z,8.80
2022-11-23T02:46:30.541Z,8.70
2022-11-23T02:47:32.350Z,8.70
2022-11-23T02:48:35.474Z,8.70
2022-11-23T02:49:37.253Z,8.60
2022-11-23T02:50:39.079Z,8.60
2022-11-23T02:51:40.745Z,8.50
2022-11-23T02:52:42.887Z,8.50
2022-11-23T02:53:44.722Z,8.60
2022-11-23T02:54:46.685Z,8.60
2022-11-23T02:55:48.347Z,8.50
2022-11-23T02:56:51.644Z,8.60
2022-11-23T02:57:54.709Z,8.60
2022-11-23T02:58:56.563Z,8.60
2022-11-23T02:59:58.283Z,8.60
2022-11-23T03:00:59.983Z,8.60
2022-11-23T03:02:03.258Z,8.50
2022-11-23T03:03:05.055Z,8.50
2022-11-23T03:04:07.635Z,8.50
2022-11-23T03:05:09.436Z,8.50
2022-11-23T03:06:12.534Z,8.50
2022-11-23T03:07:14.227Z,8.50
2022-11-23T03:08:15.998Z,8.50
2022-11-23T03:09:17.834Z,8.50
2022-11-23T03:10:20.440Z,8.50
2022-11-23T03:11:22.288Z,8.60
2022-11-23T03:12:24.061Z,8.60
2022-11-23T03:13:26.114Z,8.60
2022-11-23T03:14:27.888Z,8.60
2022-11-23T03:15:29.584Z,8.60
2022-11-23T03:16:31.407Z,8.60
2022-11-23T03:17:33.647Z,8.60
2022-11-23T03:18:35.419Z,8.60
2022-11-23T03:19:37.279Z,8.60
2022-11-23T03:20:39.143Z,8.50
2022-11-23T03:21:43.572Z,8.50
2022-11-23T03:22:51.834Z,8.50
2022-11-23T03:23:56.044Z,8.50
2022-11-23T03:24:57.737Z,8.50
2022-11-23T03:25:59.718Z,8.50
2022-11-23T03:27:02.361Z,8.40
2022-11-23T03:28:04.374Z,8.40
2022-11-23T03:29:06.094Z,8.40
2022-11-23T03:30:08.803Z,8.40
2022-11-23T03:31:10.986Z,8.40
2022-11-23T03:32:12.665Z,8.30
2022-11-23T03:33:14.372Z,8.30
2022-11-23T03:34:17.316Z,8.30
2022-11-23T03:35:19.165Z,8.30
2022-11-23T03:36:20.831Z,8.20
2022-11-23T03:37:22.807Z,8.30
2022-11-23T03:38:24.693Z,8.20
2022-11-23T03:39:26.566Z,8.20
2022-11-23T03:40:28.249Z,8.20
2022-11-23T03:41:30.097Z,8.20
2022-11-23T03:42:31.922Z,8.20
2022-11-23T03:43:33.632Z,8.20
2022-11-23T03:44:35.474Z,8.30
2022-11-23T03:45:37.155Z,8.30
2022-11-23T03:46:39.008Z,8.30
2022-11-23T03:47:40.741Z,8.20
2022-11-23T03:48:42.434Z,8.20
2022-11-23T03:49:44.290Z,8.20
2022-11-23T03:50:47.935Z,8.30
2022-11-23T03:51:49.945Z,8.20
2022-11-23T03:52:52.031Z,8.20
2022-11-23T03:53:53.947Z,8.20
2022-11-23T03:54:55.604Z,8.20
2022-11-23T03:55:58.486Z,8.20
2022-11-23T03:57:02.479Z,8.20
2022-11-23T03:58:04.799Z,8.20
2022-11-23T03:59:06.902Z,8.20
2022-11-23T04:00:09.498Z,8.20
2022-11-23T04:01:11.591Z,8.20
2022-11-23T04:02:13.444Z,8.20
2022-11-23T04:03:15.598Z,8.30
2022-11-23T04:04:19.026Z,8.30
2022-11-23T04:05:20.832Z,8.30
2022-11-23T04:06:22.692Z,8.30
2022-11-23T04:07:24.398Z,8.30
2022-11-23T04:08:26.625Z,8.30
2022-11-23T04:09:28.813Z,8.40
2022-11-23T04:10:30.646Z,8.40
2022-11-23T04:11:32.813Z,8.40
2022-11-23T04:12:34.528Z,8.40
2022-11-23T04:13:36.407Z,8.40
2022-11-23T04:14:38.123Z,8.40
2022-11-23T04:15:41.428Z,8.40
2022-11-23T04:16:43.366Z,8.40
2022-11-23T04:17:45.270Z,8.40
2022-11-23T04:18:47.259Z,8.40
2022-11-23T04:19:48.997Z,8.50
2022-11-23T04:20:50.824Z,8.50
2022-11-23T04:21:52.887Z,8.50
2022-11-23T04:22:54.783Z,8.50
2022-11-23T04:23:56.817Z,8.50
2022-11-23T04:24:58.670Z,8.50
2022-11-23T04:26:00.414Z,8.60
2022-11-23T04:27:02.156Z,8.60
2022-11-23T04:28:04.294Z,8.60
2022-11-23T04:29:06.344Z,8.60
2022-11-23T04:30:09.532Z,8.60
2022-11-23T04:31:11.528Z,8.60
2022-11-23T04:32:13.348Z,8.50
2022-11-23T04:33:15.013Z,8.50
2022-11-23T04:34:17.091Z,8.50
2022-11-23T04:35:19.675Z,8.50
2022-11-23T04:36:21.746Z,8.50
2022-11-23T04:37:23.571Z,8.50
2022-11-23T04:38:25.519Z,8.50
2022-11-23T04:39:27.586Z,8.50
2022-11-23T04:40:31.645Z,8.50
2022-11-23T04:41:33.488Z,8.50
2022-11-23T04:42:35.651Z,8.50
2022-11-23T04:43:37.446Z,8.50
2022-11-23T04:44:39.364Z,8.50
2022-11-23T04:45:42.636Z,8.50
2022-11-23T04:46:44.416Z,8.50
2022-11-23T04:47:46.105Z,8.60
2022-11-23T04:48:48.284Z,8.50
2022-11-23T04:49:51.278Z,8.50
2022-11-23T04:50:56.608Z,8.50
2022-11-23T04:51:58.420Z,8.50
2022-11-23T04:53:00.507Z,8.50
2022-11-23T04:54:02.350Z,8.50
2022-11-23T04:55:04.725Z,8.50
2022-11-23T04:56:07.179Z,8.50
2022-11-23T04:57:10.666Z,8.50
2022-11-23T04:58:12.431Z,8.50
2022-11-23T04:59:14.235Z,8.50
2022-11-23T05:00:16.524Z,8.50
2022-11-23T05:01:18.217Z,8.50
2022-11-23T05:02:20.390Z,8.50
2022-11-23T05:03:22.105Z,8.50
2022-11-23T05:04:26.372Z,8.50
2022-11-23T05:05:28.576Z,8.50
2022-11-23T05:06:30.322Z,8.50
2022-11-23T05:07:32.150Z,8.50
2022-11-23T05:08:33.944Z,8.50
2022-11-23T05:09:35.828Z,8.40
2022-11-23T05:10:38.041Z,8.40
2022-11-23T05:11:40.075Z,8.30
2022-11-23T05:12:42.349Z,8.30
2022-11-23T05:13:44.139Z,8.30
2022-11-23T05:14:45.839Z,8.20
2022-11-23T05:15:47.532Z,8.20
2022-11-23T05:16:49.376Z,8.20
2022-11-23T05:17:58.823Z,8.10
2022-11-23T05:19:01.001Z,8.10
2022-11-23T05:20:03.176Z,8.10
2022-11-23T05:21:04.988Z,8.10
2022-11-23T05:22:06.758Z,8.10
2022-11-23T05:23:10.138Z,8.10
2022-11-23T05:24:11.894Z,8.10
2022-11-23T05:25:13.755Z,8.10
2022-11-23T05:26:15.363Z,8.10
2022-11-23T05:27:17.400Z,8.10
2022-11-23T05:28:39.699Z,8.10
2022-11-23T05:29:42.943Z,8.10
2022-11-23T05:30:45.330Z,8.20
2022-11-23T05:31:47.311Z,8.20
2022-11-23T05:32:49.381Z,8.20
2022-11-23T05:33:51.053Z,8.20
2022-11-23T05:34:52.794Z,8.20
2022-11-23T05:35:54.515Z,8.20
2022-11-23T05:36:56.335Z,8.20
2022-11-23T05:37:58.074Z,8.20
2022-11-23T05:39:00.225Z,8.20
2022-11-23T05:40:02.514Z,8.20
2022-11-23T05:41:04.246Z,8.20
2022-11-23T05:42:06.336Z,8.20
2022-11-23T05:43:08.813Z,8.10
2022-11-23T05:44:10.547Z,8.10
2022-11-23T05:45:12.612Z,8.10
2022-11-23T05:46:16.180Z,8.00
2022-11-23T05:47:17.963Z,8.00
2022-11-23T05:48:19.810Z,8.00
2022-11-23T05:49:21.778Z,8.00
2022-11-23T05:50:25.435Z,8.20
2022-11-23T05:51:27.403Z,8.00
2022-11-23T05:52:29.445Z,8.00
2022-11-23T05:53:31.499Z,7.90
2022-11-23T05:54:33.285Z,7.90
2022-11-23T05:55:35.149Z,8.00
2022-11-23T05:56:40.089Z,7.90
2022-11-23T05:57:42.302Z,8.00
2022-11-23T05:58:44.123Z,8.00
2022-11-23T05:59:46.379Z,8.00
2022-11-23T06:00:48.173Z,8.00
2022-11-23T06:01:50.173Z,8.00
2022-11-23T06:02:51.841Z,8.00
2022-11-23T06:03:53.696Z,8.00
2022-11-23T06:04:55.401Z,8.10
2022-11-23T06:05:57.094Z,8.10
2022-11-23T06:07:01.388Z,8.20
2022-11-23T06:08:03.410Z,8.20
2022-11-23T06:09:05.234Z,8.50
2022-11-23T06:10:07.783Z,8.30
2022-11-23T06:11:09.698Z,8.30
2022-11-23T06:12:11.400Z,8.30
2022-11-23T06:13:13.287Z,8.30
2022-11-23T06:14:15.147Z,8.30
2022-11-23T06:15:17.339Z,8.30
2022-11-23T06:16:19.024Z,8.30
2022-11-23T06:17:21.443Z,8.30
2022-11-23T06:18:23.395Z,8.30
2022-11-23T06:19:25.206Z,8.30
2022-11-23T06:20:28.013Z,8.30
2022-11-23T06:21:29.938Z,8.30
2022-11-23T06:22:34.759Z,8.30
2022-11-23T06:23:37.777Z,8.30
2022-11-23T06:24:39.591Z,8.30
2022-11-23T06:25:41.502Z,8.40
2022-11-23T06:26:43.199Z,8.30
2022-11-23T06:28:01.727Z,8.40
2022-11-23T06:29:03.671Z,8.30
2022-11-23T06:30:06.280Z,8.40
2022-11-23T06:31:08.319Z,8.30
2022-11-23T06:32:11.463Z,8.30
2022-11-23T06:33:13.289Z,8.30
2022-11-23T06:34:15.188Z,8.30
2022-11-23T06:35:17.430Z,8.30
2022-11-23T06:36:19.758Z,8.30
2022-11-23T06:37:25.156Z,8.40
2022-11-23T06:38:27.509Z,8.40
2022-11-23T06:39:29.515Z,8.40
2022-11-23T06:40:31.424Z,8.40
2022-11-23T06:41:33.054Z,8.40
2022-11-23T06:42:39.903Z,8.50
2022-11-23T06:43:41.964Z,8.50
2022-11-23T06:44:43.704Z,8.50
2022-11-23T06:45:45.564Z,8.50
2022-11-23T06:46:47.415Z,8.50
2022-11-23T06:47:49.268Z,8.50
2022-11-23T06:48:50.978Z,8.50
2022-11-23T06:49:52.856Z,8.50
2022-11-23T06:50:54.817Z,8.50
2022-11-23T06:51:56.804Z,8.50
2022-11-23T06:52:58.651Z,8.50
2022-11-23T06:54:00.303Z,8.50
2022-11-23T06:55:02.351Z,8.50
2022-11-23T06:56:04.710Z,8.50
2022-11-23T06:57:09.825Z,8.50
2022-11-23T06:58:11.923Z,8.50
2022-11-23T06:59:15.611Z,8.40
2022-11-23T07:00:19.154Z,8.40
2022-11-23T07:01:21.913Z,8.40
2022-11-23T07:02:23.663Z,8.40
2022-11-23T07:03:25.373Z,8.40
2022-11-23T07:04:27.214Z,8.40
2022-11-23T07:05:29.109Z,8.40
2022-11-23T07:06:30.957Z,8.40
2022-11-23T07:07:33.553Z,8.40
2022-11-23T07:08:36.913Z,8.40
2022-11-23T07:09:38.606Z,8.40
2022-11-23T07:10:40.476Z,8.40
2022-11-23T07:11:42.410Z,8.50
2022-11-23T07:12:44.597Z,8.50
2022-11-23T07:13:47.407Z,8.50
2022-11-23T07:14:49.259Z,8.50
2022-11-23T07:15:51.334Z,8.50
2022-11-23T07:16:54.015Z,8.50
2022-11-23T07:17:55.768Z,8.50
2022-11-23T07:18:58.289Z,8.60
2022-11-23T07:20:00.392Z,8.40
2022-11-23T07:21:02.260Z,8.40
2022-11-23T07:22:03.953Z,8.40
2022-11-23T07:23:08.797Z,8.30
2022-11-23T07:24:10.531Z,8.30
2022-11-23T07:25:16.468Z,8.30
2022-11-23T07:26:18.309Z,8.20
2022-11-23T07:27:20.524Z,8.20
2022-11-23T07:28:22.502Z,8.20
2022-11-23T07:29:24.496Z,8.20
2022-11-23T07:30:29.572Z,8.20
2022-11-23T07:31:32.055Z,8.20
2022-11-23T07:32:33.875Z,8.20
2022-11-23T07:33:38.830Z,8.20
2022-11-23T07:34:40.611Z,8.20
2022-11-23T07:35:42.374Z,8.20
2022-11-23T07:36:44.073Z,8.20
2022-11-23T07:37:46.860Z,8.20
2022-11-23T07:38:48.625Z,8.20
2022-11-23T07:39:58.218Z,8.20
2022-11-23T07:41:01.736Z,8.10
2022-11-23T07:42:30.851Z,8.10
2022-11-23T07:43:25.313Z,8.10
2022-11-23T07:44:27.006Z,8.10
2022-11-23T07:45:31.965Z,8.00
2022-11-23T07:46:33.823Z,8.00
2022-11-23T07:47:35.628Z,8.00
2022-11-23T07:48:37.306Z,8.00
2022-11-23T07:49:39.127Z,8.00
2022-11-23T07:50:41.039Z,8.00
2022-11-23T07:51:46.395Z,7.90
2022-11-23T07:52:48.149Z,7.90
2022-11-23T07:53:49.772Z,7.90
2022-11-23T07:54:52.819Z,7.90
2022-11-23T07:56:01.302Z,7.90
2022-11-23T07:57:03.208Z,7.90
2022-11-23T07:58:06.649Z,7.90
2022-11-23T07:59:08.447Z,7.90
2022-11-23T08:00:10.683Z,7.80
2022-11-23T08:01:18.270Z,7.80
2022-11-23T08:02:20.314Z,7.80
2022-11-23T08:03:30.254Z,7.80
2022-11-23T08:04:32.555Z,7.80
2022-11-23T08:05:35.915Z,7.80
2022-11-23T08:06:37.945Z,7.80
2022-11-23T08:07:39.858Z,7.70
2022-11-23T08:08:42.411Z,7.70
2022-11-23T08:09:44.274Z,7.70
2022-11-23T08:10:51.412Z,7.70
2022-11-23T08:11:54.894Z,7.80
2022-11-23T08:13:05.290Z,7.80
2022-11-23T08:14:07.310Z,7.80
2022-11-23T09:42:56.946Z,7.40
2022-11-23T09:44:05.046Z,7.40
2022-11-23T09:45:37.526Z,7.40
2022-11-23T09:47:12.108Z,7.50
2022-11-23T09:48:24.381Z,7.70
2022-11-23T09:49:44.115Z,7.80
2022-11-23T09:50:53.720Z,8.00
2022-11-23T09:51:57.091Z,8.10
2022-11-23T09:53:07.955Z,8.20
2022-11-23T09:54:35.553Z,8.40
2022-11-23T09:55:44.608Z,8.50
2022-11-23T09:56:51.121Z,8.60
2022-11-23T09:57:59.978Z,8.70
2022-11-23T09:59:10.709Z,8.80
2022-11-23T10:00:37.722Z,8.90
2022-11-23T10:01:39.529Z,9.00
2022-11-23T10:02:41.747Z,9.10
2022-11-23T10:03:48.782Z,9.20
2022-11-23T10:04:53.386Z,9.30
2022-11-23T10:06:19.029Z,9.40
2022-11-23T10:07:21.715Z,9.50
2022-11-23T10:08:38.254Z,9.50
2022-11-23T10:09:48.235Z,9.60
2022-11-23T10:11:11.355Z,9.70
2022-11-23T10:12:39.915Z,9.80
2022-11-23T10:14:05.334Z,9.80
2022-11-23T10:15:19.635Z,9.90
2022-11-23T10:16:36.684Z,9.90
2022-11-23T10:18:04.763Z,9.90
2022-11-23T10:19:06.601Z,10.00
2022-11-23T10:20:08.222Z,10.00
2022-11-23T10:21:35.584Z,10.00
2022-11-23T10:22:50.866Z,10.00
2022-11-23T10:23:55.063Z,10.10
2022-11-23T10:24:56.779Z,10.10
2022-11-23T10:25:58.465Z,10.10
2022-11-23T10:27:01.339Z,10.10
2022-11-23T10:28:12.322Z,10.20
2022-11-23T10:29:36.837Z,10.20
2022-11-23T10:30:39.255Z,10.20
2022-11-23T10:31:46.764Z,10.30
2022-11-23T10:33:01.005Z,10.30
2022-11-23T10:34:12.003Z,10.30
2022-11-23T10:35:21.195Z,10.40
2022-11-23T10:36:23.114Z,10.40
2022-11-23T10:37:24.813Z,10.40
2022-11-23T10:38:28.022Z,10.40
2022-11-23T10:39:31.579Z,10.50
2022-11-23T10:40:33.870Z,10.50
2022-11-23T10:41:35.544Z,10.50
2022-11-23T10:42:44.253Z,10.60
2022-11-23T10:44:00.803Z,10.60
2022-11-23T10:45:02.976Z,10.60
2022-11-23T10:46:23.226Z,10.60
2022-11-23T10:47:40.946Z,10.60
2022-11-23T10:48:44.801Z,10.60
2022-11-23T10:49:58.611Z,10.60
2022-11-23T10:51:36.026Z,10.60
2022-11-23T10:52:37.696Z,10.60
2022-11-23T10:53:40.767Z,10.60
2022-11-23T10:54:54.467Z,10.60
2022-11-23T10:55:59.737Z,10.60
2022-11-23T10:57:19.954Z,10.70
2022-11-23T10:58:35.431Z,10.70
2022-11-23T10:59:38.927Z,10.70
2022-11-23T11:00:42.782Z,10.70
2022-11-23T11:02:15.063Z,10.70
2022-11-23T11:03:24.410Z,10.70
2022-11-23T11:04:26.125Z,10.80
2022-11-23T11:07:24.290Z,10.80
2022-11-23T11:08:30.902Z,10.80
2022-11-23T11:09:32.666Z,10.80
2022-11-23T11:10:37.093Z,10.90
2022-11-23T11:11:45.772Z,10.90
2022-11-23T11:12:52.125Z,10.90
2022-11-23T11:14:04.762Z,10.90
2022-11-23T11:15:12.522Z,11.00
2022-11-23T11:16:22.516Z,11.10
2022-11-23T11:17:39.671Z,11.10
2022-11-23T11:18:41.511Z,11.10
2022-11-23T11:19:43.155Z,11.10
2022-11-23T11:20:46.216Z,11.20
2022-11-23T11:21:48.494Z,11.20
2022-11-23T11:22:50.544Z,11.20
2022-11-23T11:24:00.625Z,11.20
2022-11-23T11:25:05.939Z,11.20
2022-11-23T11:26:28.916Z,11.20
2022-11-23T11:27:32.351Z,11.20
2022-11-23T11:28:40.308Z,11.30
2022-11-23T11:29:44.847Z,11.30
2022-11-23T11:31:00.873Z,11.30
2022-11-23T11:32:20.801Z,11.30
2022-11-23T11:33:34.922Z,11.40
2022-11-23T11:34:52.015Z,11.40
2022-11-23T11:35:56.324Z,11.40
2022-11-23T11:37:05.290Z,11.40
2022-11-23T11:38:37.389Z,11.40
2022-11-23T11:40:19.980Z,11.50
2022-11-23T11:41:25.428Z,11.50
2022-11-23T11:42:36.251Z,11.50
2022-11-23T11:43:43.859Z,11.50
2022-11-23T11:44:47.221Z,11.50
2022-11-23T11:47:18.724Z,11.50
2022-11-23T11:48:43.181Z,11.60
2022-11-23T11:49:48.361Z,11.60
2022-11-23T11:51:02.822Z,11.60
2022-11-23T11:52:13.505Z,11.60
2022-11-23T11:53:27.238Z,11.70
2022-11-23T11:54:33.442Z,11.70
2022-11-23T11:55:35.595Z,11.70
2022-11-23T11:56:50.565Z,11.70
2022-11-23T11:58:00.060Z,11.70
2022-11-23T11:59:19.911Z,11.70
2022-11-23T12:00:21.778Z,11.70
2022-11-23T12:01:33.744Z,11.80
2022-11-23T12:02:42.682Z,11.80
2022-11-23T12:03:50.992Z,11.70
2022-11-23T12:05:07.888Z,11.80
2022-11-23T12:06:57.670Z,11.70
2022-11-23T12:08:12.863Z,11.80
2022-11-23T12:09:26.165Z,11.80
2022-11-23T12:10:38.014Z,11.80
2022-11-23T12:11:39.824Z,11.70
2022-11-23T12:12:41.637Z,11.80
2022-11-23T12:13:47.086Z,11.80
2022-11-23T12:14:49.831Z,11.70
2022-11-23T12:16:10.540Z,11.80
2022-11-23T12:17:32.923Z,11.80
2022-11-23T12:18:57.618Z,11.70
2022-11-23T12:20:19.960Z,11.80
2022-11-23T12:21:34.688Z,11.70
2022-11-23T12:22:39.506Z,11.80
2022-11-23T12:23:57.690Z,11.70
2022-11-23T12:25:34.502Z,11.80
2022-11-23T12:26:48.327Z,11.80
2022-11-23T12:28:01.186Z,11.80
2022-11-23T12:29:38.526Z,11.80
2022-11-23T12:30:54.178Z,11.80
2022-11-23T12:32:12.712Z,11.80
2022-11-23T12:33:26.157Z,11.80
2022-11-23T12:34:42.582Z,11.80
2022-11-23T12:36:24.017Z,11.80
2022-11-23T12:37:52.184Z,11.90
2022-11-23T12:39:10.451Z,11.80
2022-11-23T12:40:23.859Z,11.90
2022-11-23T12:41:40.060Z,11.90
2022-11-23T12:42:48.446Z,11.90
2022-11-23T12:43:59.210Z,12.00
2022-11-23T12:45:25.729Z,12.00
2022-11-23T12:46:33.162Z,12.10
2022-11-23T12:47:47.352Z,12.00
2022-11-23T12:49:07.799Z,12.10
2022-11-23T12:50:28.461Z,12.10
2022-11-23T12:51:41.299Z,12.10
2022-11-23T12:53:01.369Z,12.10
2022-11-23T12:54:30.857Z,12.10
2022-11-23T12:55:38.247Z,12.00
2022-11-23T12:57:04.924Z,12.00
2022-11-23T12:58:18.719Z,12.00
2022-11-23T12:59:22.995Z,12.00
2022-11-23T13:00:29.803Z,12.00
2022-11-23T13:01:44.904Z,12.00
2022-11-23T13:02:58.745Z,12.10
2022-11-23T13:04:12.947Z,12.10
2022-11-23T13:05:20.751Z,12.20
2022-11-23T13:08:39.564Z,12.20
2022-11-23T13:10:11.533Z,12.20
2022-11-23T13:11:34.600Z,12.20
2022-11-23T13:12:59.664Z,12.20
2022-11-23T13:14:35.781Z,12.20
2022-11-23T13:15:49.891Z,12.20
2022-11-23T13:17:15.251Z,12.20
2022-11-23T13:18:43.362Z,12.20
2022-11-23T13:20:15.884Z,12.20
2022-11-23T13:21:45.634Z,12.20
2022-11-23T13:22:48.079Z,12.20
2022-11-23T13:23:50.635Z,12.20
2022-11-23T13:25:10.495Z,12.20
2022-11-23T13:26:25.823Z,12.20
2022-11-23T13:27:31.689Z,12.20
2022-11-23T13:28:33.833Z,12.20
2022-11-23T13:29:50.358Z,12.30
2022-11-23T13:31:19.857Z,12.30
2022-11-23T13:32:42.065Z,12.40
2022-11-23T13:33:48.440Z,12.40
2022-11-23T13:34:51.187Z,12.50
2022-11-23T13:36:03.504Z,12.50
2022-11-23T13:37:14.638Z,12.60
2022-11-23T13:38:16.513Z,12.60
2022-11-23T13:39:44.174Z,12.70
2022-11-23T13:40:48.062Z,12.70
2022-11-23T13:42:01.567Z,12.70
2022-11-23T13:43:22.667Z,12.70
2022-11-23T13:44:32.425Z,12.70
2022-11-23T13:45:36.799Z,12.80
2022-11-23T13:46:41.256Z,12.80
2022-11-23T13:48:08.906Z,12.80
2022-11-23T13:49:34.266Z,12.90
2022-11-23T13:50:38.581Z,12.90
2022-11-23T13:51:40.810Z,12.90
2022-11-23T13:52:50.046Z,12.90
2022-11-23T13:53:57.301Z,12.90
2022-11-23T13:55:10.090Z,13.00
2022-11-23T13:56:36.787Z,13.00
2022-11-23T13:57:40.189Z,13.00
2022-11-23T13:58:54.378Z,13.10
2022-11-23T14:00:34.909Z,13.10
2022-11-23T14:02:08.230Z,13.10
2022-11-23T14:03:44.436Z,13.10
2022-11-23T14:04:49.593Z,13.20
2022-11-23T14:05:54.631Z,13.20
2022-11-23T14:07:18.027Z,13.20
2022-11-23T14:08:21.547Z,13.20
2022-11-23T14:09:30.888Z,13.20
2022-11-23T14:10:33.320Z,13.10
2022-11-23T14:11:57.583Z,13.20
2022-11-23T14:13:04.566Z,13.20
2022-11-23T14:14:18.857Z,13.20
2022-11-23T14:15:24.573Z,13.20
2022-11-23T14:17:09.216Z,13.30
2022-11-23T14:18:49.591Z,13.30
2022-11-23T14:20:19.282Z,13.30
2022-11-23T14:21:41.272Z,13.20
2022-11-23T14:22:58.515Z,13.20
2022-11-23T14:24:38.310Z,13.20
2022-11-23T14:26:09.472Z,13.10
2022-11-23T14:27:47.689Z,13.20
2022-11-23T14:29:11.182Z,13.20
2022-11-23T14:31:00.480Z,13.20
2022-11-23T14:32:32.556Z,13.20
2022-11-23T14:34:03.556Z,13.20
2022-11-23T14:35:26.409Z,13.30
2022-11-23T14:37:00.175Z,13.30
2022-11-23T14:38:19.871Z,13.30
2022-11-23T14:39:52.222Z,13.30
2022-11-23T14:41:07.663Z,13.30
2022-11-23T14:42:17.162Z,13.30
2022-11-23T14:43:19.633Z,13.30
2022-11-23T14:44:27.168Z,13.30
2022-11-23T14:45:33.137Z,13.30
2022-11-23T14:46:34.992Z,13.30
2022-11-23T14:47:36.743Z,13.30
2022-11-23T14:48:40.251Z,13.30
2022-11-23T14:50:00.165Z,13.30
2022-11-23T14:51:15.346Z,13.40
2022-11-23T14:52:22.768Z,13.40
2022-11-23T14:53:45.396Z,13.30
2022-11-23T14:54:54.806Z,13.30
2022-11-23T14:55:58.223Z,13.30
2022-11-23T14:57:03.456Z,13.20
2022-11-23T14:58:06.616Z,13.20
2022-11-23T14:59:29.916Z,13.10
2022-11-23T15:00:39.758Z,13.10
2022-11-23T15:01:50.887Z,13.00
2022-11-23T15:02:55.122Z,13.00
2022-11-23T15:04:06.564Z,12.90
2022-11-23T15:05:08.455Z,12.90
2022-11-23T15:06:16.636Z,12.90
2022-11-23T15:07:24.909Z,12.80
2022-11-23T15:08:31.999Z,12.80
2022-11-23T15:09:36.897Z,12.70
2022-11-23T15:10:48.491Z,12.70
2022-11-23T15:11:50.179Z,12.70
2022-11-23T15:12:51.945Z,12.70
2022-11-23T15:14:04.534Z,12.60
2022-11-23T15:15:26.941Z,12.60
2022-11-23T15:16:28.754Z,12.60
2022-11-23T15:17:30.456Z,12.50
2022-11-23T15:18:40.584Z,12.50
2022-11-23T15:19:45.373Z,12.50
2022-11-23T15:20:47.093Z,12.50
2022-11-23T15:21:51.190Z,12.40
2022-11-23T15:22:54.073Z,12.40
2022-11-23T15:23:58.257Z,12.40
2022-11-23T15:25:14.886Z,12.40
2022-11-23T15:26:46.181Z,12.40
2022-11-23T15:27:45.608Z,12.40
2022-11-23T15:28:47.786Z,12.40
2022-11-23T15:29:55.892Z,12.40
2022-11-23T15:30:59.110Z,12.40
2022-11-23T15:33:24.266Z,12.40
2022-11-23T15:34:26.559Z,12.40
2022-11-23T15:35:46.877Z,12.40
2022-11-23T15:36:49.423Z,12.40
2022-11-23T15:37:51.614Z,12.30
2022-11-23T15:38:54.466Z,12.30
2022-11-23T15:39:57.132Z,12.40
2022-11-23T15:41:05.156Z,12.30
2022-11-23T15:42:09.694Z,12.30
2022-11-23T15:43:16.008Z,12.30
2022-11-23T15:44:23.539Z,12.30
2022-11-23T15:45:45.943Z,12.30
2022-11-23T15:46:49.207Z,12.30
2022-11-23T15:47:50.954Z,12.30
2022-11-23T15:48:54.582Z,12.30
2022-11-23T15:50:03.693Z,12.30
2022-11-23T15:51:08.433Z,12.20
2022-11-23T15:52:16.583Z,12.20
2022-11-23T15:53:20.867Z,12.20
2022-11-23T15:54:25.607Z,12.20
2022-11-23T15:55:29.458Z,12.10
2022-11-23T15:56:34.069Z,12.10
2022-11-23T15:57:37.502Z,12.10
2022-11-23T15:58:39.128Z,12.10
2022-11-23T15:59:56.948Z,12.10
2022-11-23T16:01:13.341Z,12.10
2022-11-23T16:02:22.543Z,12.10
2022-11-23T16:03:24.334Z,12.10
2022-11-23T16:04:29.382Z,12.10
2022-11-23T16:05:31.173Z,12.10
2022-11-23T16:06:42.897Z,12.10
2022-11-23T16:07:57.931Z,12.10
2022-11-23T16:08:59.742Z,12.10
2022-11-23T16:10:14.554Z,12.00
2022-11-23T16:11:20.513Z,12.00
2022-11-23T16:12:26.403Z,12.00
2022-11-23T16:13:39.928Z,12.00
2022-11-23T16:14:41.617Z,12.00
2022-11-23T16:15:47.657Z,12.00